Time,TemperatureF,DewpointF,PressureIn,WindDirection,WindDirectionDegrees,WindSpeedMPH,WindSpeedGustMPH,Humidity,HourlyPrecipIn,Conditions,Clouds,dailyrainin,SoftwareType,DateUTC
2013-01-15 00:03:00,41.2,25.8,30.26,ENE,67,0.0,-999.0,54,-99.99,,,0.00,Acu-Link.com,2013-01-15 08:03:00,
2013-01-15 00:18:00,42.3,26.9,30.26,South,180,0.0,-999.0,54,-99.99,,,0.00,Acu-Link.com,2013-01-15 08:18:00,
2013-01-15 00:34:00,41.7,24.9,30.26,NE,45,3.2,-999.0,51,-99.99,,,0.00,Acu-Link.com,2013-01-15 08:34:00,
2013-01-15 00:49:00,40.5,24.7,30.26,NE,45,3.2,-999.0,53,-99.99,,,0.00,Acu-Link.com,2013-01-15 08:49:00,
2013-01-15 01:14:00,41.4,23.7,30.26,NE,45,4.2,-999.0,49,-99.99,,,0.00,Acu-Link.com,2013-01-15 09:14:00,
2013-01-15 01:29:00,41.0,24.3,30.26,NE,45,2.2,-999.0,51,-99.99,,,0.00,Acu-Link.com,2013-01-15 09:29:00,
2013-01-15 01:44:00,40.8,25.9,30.27,WSW,247,2.2,-999.0,55,-99.99,,,0.00,Acu-Link.com,2013-01-15 09:44:00,
2013-01-15 01:59:00,40.8,25.9,30.28,SW,225,1.7,-999.0,55,-99.99,,,0.00,Acu-Link.com,2013-01-15 09:59:00,
2013-01-15 02:15:00,41.0,26.1,30.28,SW,225,0.0,-999.0,55,-99.99,,,0.00,Acu-Link.com,2013-01-15 10:15:00,
2013-01-15 02:30:00,41.2,25.4,30.28,West,270,2.2,-999.0,53,-99.99,,,0.00,Acu-Link.com,2013-01-15 10:30:00,
2013-01-15 02:45:00,41.2,25.8,30.28,SSW,202,0.0,-999.0,54,-99.99,,,0.00,Acu-Link.com,2013-01-15 10:45:00,
2013-01-15 03:00:00,41.4,25.6,30.28,NE,45,3.7,-999.0,53,-99.99,,,0.00,Acu-Link.com,2013-01-15 11:00:00,
2013-01-15 03:15:00,39.4,22.3,30.28,NE,45,2.2,-999.0,50,-99.99,,,0.00,Acu-Link.com,2013-01-15 11:15:00,
2013-01-15 03:31:00,39.4,22.3,30.28,NE,45,2.2,-999.0,50,-99.99,,,0.00,Acu-Link.com,2013-01-15 11:31:00,
2013-01-15 03:46:00,38.8,22.2,30.28,SSE,157,0.0,-999.0,51,-99.99,,,0.00,Acu-Link.com,2013-01-15 11:46:00,
2013-01-15 04:01:00,38.3,22.2,30.28,NE,45,2.7,-999.0,52,-99.99,,,0.00,Acu-Link.com,2013-01-15 12:01:00,
2013-01-15 04:16:00,39.2,22.6,30.28,ENE,67,4.2,-999.0,51,-99.99,,,0.00,Acu-Link.com,2013-01-15 12:16:00,
2013-01-15 04:31:00,39.0,22.9,30.28,NE,45,3.7,-999.0,52,-99.99,,,0.00,Acu-Link.com,2013-01-15 12:31:00,
2013-01-15 04:47:00,38.8,22.7,30.27,NE,45,3.2,-999.0,52,-99.99,,,0.00,Acu-Link.com,2013-01-15 12:47:00,
2013-01-15 05:02:00,38.1,22.5,30.28,NE,45,3.7,-999.0,53,-99.99,,,0.00,Acu-Link.com,2013-01-15 13:02:00,
2013-01-15 05:17:00,37.9,22.3,30.28,ENE,67,4.2,-999.0,53,-99.99,,,0.00,Acu-Link.com,2013-01-15 13:17:00,
2013-01-15 05:32:00,37.8,22.2,30.28,South,180,2.2,-999.0,53,-99.99,,,0.00,Acu-Link.com,2013-01-15 13:32:00,
2013-01-15 05:47:00,38.7,23.1,30.28,ESE,112,3.2,-999.0,53,-99.99,,,0.00,Acu-Link.com,2013-01-15 13:47:00,
2013-01-15 06:03:00,39.0,22.4,30.28,East,90,2.7,-999.0,51,-99.99,,,0.00,Acu-Link.com,2013-01-15 14:03:00,
2013-01-15 06:18:00,39.2,22.6,30.29,NNE,22,4.2,-999.0,51,-99.99,,,0.00,Acu-Link.com,2013-01-15 14:18:00,
2013-01-15 06:33:00,39.0,22.9,30.29,ENE,67,3.7,-999.0,52,-99.99,,,0.00,Acu-Link.com,2013-01-15 14:33:00,
2013-01-15 06:48:00,38.8,23.2,30.30,East,90,4.7,-999.0,53,-99.99,,,0.00,Acu-Link.com,2013-01-15 14:48:00,
2013-01-15 07:04:00,38.3,22.7,30.30,East,90,2.7,-999.0,53,-99.99,,,0.00,Acu-Link.com,2013-01-15 15:04:00,
2013-01-15 07:19:00,37.9,21.4,30.31,East,90,2.7,-999.0,51,-99.99,,,0.00,Acu-Link.com,2013-01-15 15:19:00,
2013-01-15 07:34:00,37.4,21.4,30.32,East,90,4.2,-999.0,52,-99.99,,,0.00,Acu-Link.com,2013-01-15 15:34:00,
2013-01-15 07:49:00,37.4,22.3,30.32,NE,45,2.7,-999.0,54,-99.99,,,0.00,Acu-Link.com,2013-01-15 15:49:00,
2013-01-15 08:04:00,37.2,22.1,30.32,ENE,67,4.2,-999.0,54,-99.99,,,0.00,Acu-Link.com,2013-01-15 16:04:00,
2013-01-15 08:20:00,37.8,21.8,30.33,ENE,67,2.7,-999.0,52,-99.99,,,0.00,Acu-Link.com,2013-01-15 16:20:00,
2013-01-15 08:35:00,38.7,22.1,30.33,NE,45,3.7,-999.0,51,-99.99,,,0.00,Acu-Link.com,2013-01-15 16:35:00,
2013-01-15 08:50:00,41.5,23.3,30.33,NE,45,0.0,-999.0,48,-99.99,,,0.00,Acu-Link.com,2013-01-15 16:50:00,
2013-01-15 09:06:00,45.3,24.1,30.34,SSW,202,0.0,-999.0,43,-99.99,,,0.00,Acu-Link.com,2013-01-15 17:06:00,
2013-01-15 09:21:00,48.2,25.0,30.34,East,90,0.0,-999.0,40,-99.99,,,0.00,Acu-Link.com,2013-01-15 17:21:00,
2013-01-15 09:36:00,51.3,25.9,30.34,WNW,292,1.1,-999.0,37,-99.99,,,0.00,Acu-Link.com,2013-01-15 17:36:00,
2013-01-15 09:51:00,48.9,25.7,30.34,ENE,67,0.0,-999.0,40,-99.99,,,0.00,Acu-Link.com,2013-01-15 17:51:00,
2013-01-15 10:06:00,52.2,27.4,30.35,ENE,67,0.0,-999.0,38,-99.99,,,0.00,Acu-Link.com,2013-01-15 18:06:00,
2013-01-15 10:22:00,52.2,28.6,30.34,SSW,202,3.7,-999.0,40,-99.99,,,0.00,Acu-Link.com,2013-01-15 18:22:00,
2013-01-15 10:37:00,53.4,27.8,30.34,NNW,337,1.1,-999.0,37,-99.99,,,0.00,Acu-Link.com,2013-01-15 18:37:00,
2013-01-15 10:52:00,54.1,27.7,30.34,West,270,1.1,-999.0,36,-99.99,,,0.00,Acu-Link.com,2013-01-15 18:52:00,
2013-01-15 11:07:00,56.8,28.7,30.34,West,270,1.7,-999.0,34,-99.99,,,0.00,Acu-Link.com,2013-01-15 19:07:00,
2013-01-15 11:22:00,57.7,29.5,30.33,West,270,2.2,-999.0,34,-99.99,,,0.00,Acu-Link.com,2013-01-15 19:22:00,
2013-01-15 11:38:00,59.9,31.5,30.32,South,180,1.7,-999.0,34,-99.99,,,0.00,Acu-Link.com,2013-01-15 19:38:00,
2013-01-15 11:53:00,61.3,32.7,30.32,West,270,1.1,-999.0,34,-99.99,,,0.00,Acu-Link.com,2013-01-15 19:53:00,
2013-01-15 12:08:00,59.9,32.9,30.32,West,270,5.3,-999.0,36,-99.99,,,0.00,Acu-Link.com,2013-01-15 20:08:00,
2013-01-15 12:23:00,62.1,32.7,30.31,West,270,3.7,-999.0,33,-99.99,,,0.00,Acu-Link.com,2013-01-15 20:23:00,
2013-01-15 12:38:00,58.8,33.3,30.30,WNW,292,1.7,-999.0,38,-99.99,,,0.00,Acu-Link.com,2013-01-15 20:38:00,
2013-01-15 12:54:00,59.4,33.1,30.30,WNW,292,2.7,-999.0,37,-99.99,,,0.00,Acu-Link.com,2013-01-15 20:54:00,
2013-01-15 13:09:00,61.7,33.0,30.30,WSW,247,3.7,-999.0,34,-99.99,,,0.00,Acu-Link.com,2013-01-15 21:09:00,
2013-01-15 13:24:00,60.4,32.6,30.29,NW,315,3.2,-999.0,35,-99.99,,,0.00,Acu-Link.com,2013-01-15 21:24:00,
2013-01-15 13:40:00,58.6,31.7,30.29,WSW,247,4.7,-999.0,36,-99.99,,,0.00,Acu-Link.com,2013-01-15 21:40:00,
2013-01-15 13:55:00,58.8,33.3,30.29,SW,225,4.7,-999.0,38,-99.99,,,0.00,Acu-Link.com,2013-01-15 21:55:00,
2013-01-15 14:10:00,62.2,33.5,30.29,West,270,2.7,-999.0,34,-99.99,,,0.00,Acu-Link.com,2013-01-15 22:10:00,
2013-01-15 14:25:00,62.2,34.2,30.29,WNW,292,2.2,-999.0,35,-99.99,,,0.00,Acu-Link.com,2013-01-15 22:25:00,
2013-01-15 14:40:00,60.6,33.5,30.28,West,270,3.2,-999.0,36,-99.99,,,0.00,Acu-Link.com,2013-01-15 22:40:00,
2013-01-15 14:56:00,60.8,33.0,30.28,WSW,247,3.2,-999.0,35,-99.99,,,0.00,Acu-Link.com,2013-01-15 22:56:00,
2013-01-15 15:11:00,62.1,34.1,30.28,SSE,157,2.7,-999.0,35,-99.99,,,0.00,Acu-Link.com,2013-01-15 23:11:00,
2013-01-15 15:27:00,61.3,34.1,30.29,WNW,292,3.7,-999.0,36,-99.99,,,0.00,Acu-Link.com,2013-01-15 23:27:00,
2013-01-15 15:42:00,60.1,33.1,30.29,West,270,3.7,-999.0,36,-99.99,,,0.00,Acu-Link.com,2013-01-15 23:42:00,
2013-01-15 15:57:00,57.9,31.8,30.29,SW,225,3.7,-999.0,37,-99.99,,,0.00,Acu-Link.com,2013-01-15 23:57:00,
2013-01-15 16:12:00,55.2,30.7,30.29,WSW,247,3.7,-999.0,39,-99.99,,,0.00,Acu-Link.com,2013-01-16 00:12:00,
2013-01-15 16:27:00,53.1,30.6,30.29,SW,225,6.3,-999.0,42,-99.99,,,0.00,Acu-Link.com,2013-01-16 00:27:00,
2013-01-15 16:43:00,52.2,30.4,30.29,SSE,157,7.3,-999.0,43,-99.99,,,0.00,Acu-Link.com,2013-01-16 00:43:00,
2013-01-15 16:58:00,50.5,30.5,30.29,SW,225,4.2,-999.0,46,-99.99,,,0.00,Acu-Link.com,2013-01-16 00:58:00,
2013-01-15 17:13:00,48.4,30.1,30.29,West,270,8.9,-999.0,49,-99.99,,,0.00,Acu-Link.com,2013-01-16 01:13:00,
2013-01-15 17:28:00,46.8,30.1,30.29,West,270,4.7,-999.0,52,-99.99,,,0.00,Acu-Link.com,2013-01-16 01:28:00,
2013-01-15 17:44:00,45.9,30.7,30.30,South,180,0.0,-999.0,55,-99.99,,,0.00,Acu-Link.com,2013-01-16 01:44:00,
2013-01-15 17:59:00,44.4,31.8,30.30,NE,45,0.0,-999.0,61,-99.99,,,0.00,Acu-Link.com,2013-01-16 01:59:00,
2013-01-15 18:14:00,43.2,31.9,30.30,NE,45,2.7,-999.0,64,-99.99,,,0.00,Acu-Link.com,2013-01-16 02:14:00,
2013-01-15 18:29:00,42.6,31.3,30.30,NE,45,3.2,-999.0,64,-99.99,,,0.00,Acu-Link.com,2013-01-16 02:29:00,
2013-01-15 18:44:00,42.3,31.0,30.30,NE,45,5.8,-999.0,64,-99.99,,,0.00,Acu-Link.com,2013-01-16 02:44:00,
2013-01-15 19:00:00,41.9,31.0,30.29,NE,45,2.7,-999.0,65,-99.99,,,0.00,Acu-Link.com,2013-01-16 03:00:00,
2013-01-15 19:15:00,41.5,31.0,30.30,NE,45,3.7,-999.0,66,-99.99,,,0.00,Acu-Link.com,2013-01-16 03:15:00,
2013-01-15 19:30:00,41.2,31.1,30.30,NE,45,3.7,-999.0,67,-99.99,,,0.00,Acu-Link.com,2013-01-16 03:30:00,
2013-01-15 19:46:00,41.2,30.7,30.30,NE,45,3.7,-999.0,66,-99.99,,,0.00,Acu-Link.com,2013-01-16 03:46:00,
2013-01-15 20:01:00,40.6,30.5,30.30,ENE,67,3.2,-999.0,67,-99.99,,,0.00,Acu-Link.com,2013-01-16 04:01:00,
2013-01-15 20:16:00,40.3,30.6,30.30,NE,45,2.7,-999.0,68,-99.99,,,0.00,Acu-Link.com,2013-01-16 04:16:00,
2013-01-15 20:31:00,40.1,30.4,30.30,East,90,3.2,-999.0,68,-99.99,,,0.00,Acu-Link.com,2013-01-16 04:31:00,
2013-01-15 20:46:00,39.7,30.4,30.29,NE,45,3.2,-999.0,69,-99.99,,,0.00,Acu-Link.com,2013-01-16 04:46:00,
2013-01-15 21:02:00,39.4,30.1,30.28,ESE,112,0.0,-999.0,69,-99.99,,,0.00,Acu-Link.com,2013-01-16 05:02:00,
2013-01-15 21:17:00,39.2,30.9,30.29,SW,225,2.7,-999.0,72,-99.99,,,0.00,Acu-Link.com,2013-01-16 05:17:00,
2013-01-15 21:32:00,39.9,31.6,30.29,WSW,247,3.2,-999.0,72,-99.99,,,0.00,Acu-Link.com,2013-01-16 05:32:00,
2013-01-15 21:47:00,40.1,31.1,30.29,West,270,1.7,-999.0,70,-99.99,,,0.00,Acu-Link.com,2013-01-16 05:47:00,
2013-01-15 22:02:00,39.7,31.1,30.29,West,270,2.7,-999.0,71,-99.99,,,0.00,Acu-Link.com,2013-01-16 06:02:00,
2013-01-15 22:18:00,39.0,30.4,30.29,NE,45,1.7,-999.0,71,-99.99,,,0.00,Acu-Link.com,2013-01-16 06:18:00,
2013-01-15 22:33:00,38.5,30.6,30.29,West,270,2.2,-999.0,73,-99.99,,,0.00,Acu-Link.com,2013-01-16 06:33:00,
2013-01-15 22:48:00,38.1,30.2,30.29,NE,45,0.0,-999.0,73,-99.99,,,0.00,Acu-Link.com,2013-01-16 06:48:00,
2013-01-15 23:03:00,37.8,30.6,30.29,NE,45,1.7,-999.0,75,-99.99,,,0.00,Acu-Link.com,2013-01-16 07:03:00,
2013-01-15 23:18:00,37.9,30.4,30.29,ENE,67,0.0,-999.0,74,-99.99,,,0.00,Acu-Link.com,2013-01-16 07:18:00,
2013-01-15 23:34:00,38.1,30.9,30.28,WSW,247,3.2,-999.0,75,-99.99,,,0.00,Acu-Link.com,2013-01-16 07:34:00,
2013-01-15 23:49:00,38.8,30.6,30.29,West,270,6.8,-999.0,72,-99.99,,,0.00,Acu-Link.com,2013-01-16 07:49:00,